Time;durP1;ratioP1;P1;durP2;ratioP2;P2;SDS_P1;SDS_P2;PMS_P1;PMS_P2;Temp;Humidity;BMP_temperature;BMP_pressure;BME280_temperature;BME280_humidity;BME280_pressure;Samples;Min_cycle;Max_cycle;Signal;HPM_P1;HPM_P2
2021/01/18 00:00:40;;;;;;;;;;;;;;;;;;5077459;28;19957;-66
2021/01/18 00:03:07;;;;;;;;;;;;;;;;;;5074150;28;19924;-66
2021/01/18 00:05:33;;;;;;;;;;;;;;;;;;5074201;28;19925;-66
2021/01/18 00:07:59;;;;;;;;;;;;;;;;;;5074135;28;19924;-66
2021/01/18 00:10:26;;;;;;;;;;;;;;;;;;5074054;28;19940;-66
2021/01/18 00:12:53;;;;;;;;;;;;;;;;;;5073383;28;20556;-66
2021/01/18 00:15:19;;;;;;;;;;;;;;;;;;5074240;28;19990;-66
2021/01/18 00:17:45;;;;;;;;;;;;;;;;;;5073885;28;19924;-66
2021/01/18 00:20:12;;;;;;;;;;;;;;;;;;5076008;28;19936;-66
2021/01/18 00:22:38;;;;;;;;;;;;;;;;;;5065455;28;19925;-66
2021/01/18 00:25:05;;;;;;;;;;;;;;;;;;5073439;28;19924;-66
2021/01/18 00:27:31;;;;;;;;;;;;;;;;;;5073367;28;19935;-66
2021/01/18 00:29:58;;;;;;;;;;;;;;;;;;5073612;28;19973;-66
2021/01/18 00:32:24;;;;;;;;;;;;;;;;;;5089403;22;20298;-68
2021/01/18 00:34:51;;;;;;;;;;;;;;;;;;5063779;28;19979;-69
2021/01/18 00:37:17;;;;;;;;;;;;;;;;;;5064969;28;20024;-69
2021/01/18 00:39:44;;;;;;;;;;;;;;;;;;5065956;28;20015;-69
2021/01/18 00:42:10;;;;;;;;;;;;;;;;;;5062945;28;19924;-69
2021/01/18 00:44:37;;;;;;;;;;;;;;;;;;5053708;28;19925;-68
2021/01/18 00:47:03;;;;;;;;;;;;;;;;;;5055233;28;19924;-70
2021/01/18 00:49:29;;;;;;;;;;;;;;;;;;5051790;28;19924;-68
2021/01/18 00:51:56;;;;;;;;;;;;;;;;;;5048737;28;20017;-69
2021/01/18 00:54:22;;;;;;;;;;;;;;;;;;5047137;28;20495;-69
2021/01/18 00:56:49;;;;;;;;;;;;;;;;;;5050177;28;20381;-69
2021/01/18 00:59:15;;;;;;;;;;;;;;;;;;5047217;28;20413;-69
2021/01/18 01:01:42;;;;;;;;;;;;;;;;;;5052763;28;20337;-69
2021/01/18 01:04:08;;;;;;;;;;;;;;;;;;5052185;28;20011;-68
2021/01/18 01:06:35;;;;;;;;;;;;;;;;;;5050950;28;19932;-70
2021/01/18 01:09:01;;;;;;;;;;;;;;;;;;5053222;28;19956;-69
2021/01/18 01:11:28;;;;;;;;;;;;;;;;;;5052678;28;19982;-69
2021/01/18 01:13:54;;;;;;;;;;;;;;;;;;5050017;28;20296;-69
2021/01/18 01:16:20;;;;;;;;;;;;;;;;;;5046206;28;19924;-69
2021/01/18 01:18:47;;;;;;;;;;;;;;;;;;5054100;28;19950;-70
2021/01/18 01:21:13;;;;;;;;;;;;;;;;;;5052238;28;20010;-69
2021/01/18 01:23:40;;;;;;;;;;;;;;;;;;5053006;28;19925;-69
2021/01/18 01:26:06;;;;;;;;;;;;;;;;;;5052654;28;19935;-69
2021/01/18 01:28:33;;;;;;;;;;;;;;;;;;5053193;28;19959;-69
2021/01/18 01:30:59;;;;;;;;;;;;;;;;;;5052831;28;20086;-69
2021/01/18 01:33:26;;;;;;;;;;;;;;;;;;5043817;28;20015;-69
2021/01/18 01:35:53;;;;;;;;;;;;;;;;;;5047079;28;19970;-70
2021/01/18 01:38:19;;;;;;;;;;;;;;;;;;5054827;28;19935;-69
2021/01/18 01:40:45;;;;;;;;;;;;;;;;;;5048194;28;20419;-70
2021/01/18 01:43:12;;;;;;;;;;;;;;;;;;5047966;28;20344;-70
2021/01/18 01:45:38;;;;;;;;;;;;;;;;;;5048735;28;19931;-69
2021/01/18 01:48:05;;;;;;;;;;;;;;;;;;5050262;28;19932;-69
2021/01/18 01:50:31;;;;;;;;;;;;;;;;;;5056422;28;20002;-69
2021/01/18 01:52:58;;;;;;;;;;;;;;;;;;5050881;28;20385;-69
2021/01/18 01:55:24;;;;;;;;;;;;;;;;;;5059808;28;19950;-69
2021/01/18 01:57:51;;;;;;;;;;;;;;;;;;5058404;28;20060;-70
2021/01/18 02:00:17;;;;;;;;;;;;;;;;;;5041671;28;19925;-70
2021/01/18 02:02:43;;;;;;;;;;;;;;;;;;5052123;28;19924;-70
2021/01/18 02:05:10;;;;;;;;;;;;;;;;;;5052694;28;19925;-70
2021/01/18 02:07:36;;;;;;;;;;;;;;;;;;5054636;28;19931;-71
2021/01/18 02:10:04;;;;;;;;;;;;;;;;;;5048276;28;20377;-70
2021/01/18 02:12:30;;;;;;;;;;;;;;;;;;5051720;28;19924;-71
2021/01/18 02:14:57;;;;;;;;;;;;;;;;;;5042820;28;20063;-69
2021/01/18 02:17:23;;;;;;;;;;;;;;;;;;5042958;28;19925;-69
2021/01/18 02:19:50;;;;;;;;;;;;;;;;;;5049587;28;20347;-69
2021/01/18 02:22:16;;;;;;;;;;;;;;;;;;5047334;28;20190;-69
2021/01/18 02:24:43;;;;;;;;;;;;;;;;;;5053806;28;20019;-70
2021/01/18 02:27:09;;;;;;;;;;;;;;;;;;5048763;28;20369;-70
2021/01/18 02:29:36;;;;;;;;;;;;;;;;;;5057463;28;20296;-70
2021/01/18 02:32:02;;;;;;;;;;;;;;;;;;5053731;28;19947;-70
2021/01/18 02:34:29;;;;;;;;;;;;;;;;;;5065169;28;20038;-70
2021/01/18 02:36:55;;;;;;;;;;;;;;;;;;5050471;28;19929;-70
2021/01/18 02:39:21;;;;;;;;;;;;;;;;;;5044703;28;19931;-70
2021/01/18 02:41:48;;;;;;;;;;;;;;;;;;5047308;28;19928;-70
2021/01/18 02:44:14;;;;;;;;;;;;;;;;;;5058944;28;19935;-69
2021/01/18 02:46:41;;;;;;;;;;;;;;;;;;5054181;28;20011;-69
2021/01/18 02:49:07;;;;;;;;;;;;;;;;;;5051354;28;19924;-70
2021/01/18 02:51:34;;;;;;;;;;;;;;;;;;5045667;28;20055;-69
2021/01/18 02:54:00;;;;;;;;;;;;;;;;;;5046847;28;20385;-69
2021/01/18 02:56:27;;;;;;;;;;;;;;;;;;5053246;28;19932;-69
2021/01/18 02:58:53;;;;;;;;;;;;;;;;;;5066591;28;19925;-70
2021/01/18 03:01:20;;;;;;;;;;;;;;;;;;5045188;28;19924;-70
2021/01/18 03:03:46;;;;;;;;;;;;;;;;;;5051840;28;19977;-73
2021/01/18 03:06:13;;;;;;;;;;;;;;;;;;5059094;28;19946;-69
2021/01/18 03:08:39;;;;;;;;;;;;;;;;;;5051245;28;19924;-68
2021/01/18 03:11:05;;;;;;;;;;;;;;;;;;5042755;28;19925;-69
2021/01/18 03:13:32;;;;;;;;;;;;;;;;;;5050796;28;19972;-70
2021/01/18 03:15:59;;;;;;;;;;;;;;;;;;5050349;28;19933;-71
2021/01/18 03:18:25;;;;;;;;;;;;;;;;;;5051292;28;19925;-69
2021/01/18 03:20:52;;;;;;;;;;;;;;;;;;5055684;28;19931;-69
2021/01/18 03:23:18;;;;;;;;;;;;;;;;;;5066050;28;20013;-71
2021/01/18 03:25:45;;;;;;;;;;;;;;;;;;5059425;28;19929;-69
2021/01/18 03:28:11;;;;;;;;;;;;;;;;;;5052771;28;19933;-68
2021/01/18 03:30:38;;;;;;;;;;;;;;;;;;5057126;28;20397;-69
2021/01/18 03:33:04;;;;;;;;;;;;;;;;;;5051521;28;20357;-72
2021/01/18 03:35:30;;;;;;;;;;;;;;;;;;5056468;28;19925;-71
2021/01/18 03:37:57;;;;;;;;;;;;;;;;;;5056486;28;19930;-68
2021/01/18 03:40:23;;;;;;;;;;;;;;;;;;5055349;28;19932;-70
2021/01/18 03:42:50;;;;;;;;;;;;;;;;;;5051369;28;20024;-67
2021/01/18 03:45:16;;;;;;;;;;;;;;;;;;5052763;28;20034;-68
2021/01/18 03:47:43;;;;;;;;;;;;;;;;;;5046830;28;20300;-69
2021/01/18 03:50:09;;;;;;;;;;;;;;;;;;5053275;28;19925;-69
2021/01/18 03:52:36;;;;;;;;;;;;;;;;;;5052461;28;19924;-69
2021/01/18 03:55:02;;;;;;;;;;;;;;;;;;5054710;28;20058;-69
2021/01/18 03:57:29;;;;;;;;;;;;;;;;;;5046771;28;19925;-68
2021/01/18 03:59:55;;;;;;;;;;;;;;;;;;5058683;28;19929;-69
2021/01/18 04:02:21;;;;;;;;;;;;;;;;;;5047316;28;19925;-68
2021/01/18 04:04:48;;;;;;;;;;;;;;;;;;5055718;28;19924;-68
2021/01/18 04:07:14;;;;;;;;;;;;;;;;;;5044827;28;19935;-68
2021/01/18 04:09:41;;;;;;;;;;;;;;;;;;5057994;28;19925;-69
2021/01/18 04:12:07;;;;;;;;;;;;;;;;;;5054069;28;19984;-69
2021/01/18 04:14:34;;;;;;;;;;;;;;;;;;5055219;28;19925;-69
2021/01/18 04:17:00;;;;;;;;;;;;;;;;;;5055646;28;19925;-68
2021/01/18 04:19:27;;;;;;;;;;;;;;;;;;5050844;28;19979;-69
2021/01/18 04:21:53;;;;;;;;;;;;;;;;;;5054499;28;19941;-69
2021/01/18 04:24:19;;;;;;;;;;;;;;;;;;5054001;28;19924;-68
2021/01/18 04:26:46;;;;;;;;;;;;;;;;;;5039214;28;19932;-69
2021/01/18 04:29:12;;;;;;;;;;;;;;;;;;5058569;28;19925;-69
2021/01/18 04:31:39;;;;;;;;;;;;;;;;;;5054231;28;19968;-69
2021/01/18 04:34:05;;;;;;;;;;;;;;;;;;5047110;28;19979;-69
2021/01/18 04:36:32;;;;;;;;;;;;;;;;;;5048625;28;19925;-68
2021/01/18 04:38:58;;;;;;;;;;;;;;;;;;5054264;28;20011;-68
2021/01/18 04:41:25;;;;;;;;;;;;;;;;;;5054526;28;19928;-68
2021/01/18 04:43:51;;;;;;;;;;;;;;;;;;5048911;28;19925;-68
2021/01/18 04:46:18;;;;;;;;;;;;;;;;;;5054597;28;19931;-69
2021/01/18 04:48:44;;;;;;;;;;;;;;;;;;5045919;28;20292;-68
2021/01/18 04:51:10;;;;;;;;;;;;;;;;;;5061511;28;19925;-69
2021/01/18 04:53:37;;;;;;;;;;;;;;;;;;5053298;28;20015;-69
2021/01/18 04:56:03;;;;;;;;;;;;;;;;;;5043632;28;19925;-68
2021/01/18 04:58:30;;;;;;;;;;;;;;;;;;5046648;28;19931;-68
2021/01/18 05:00:56;;;;;;;;;;;;;;;;;;5053113;28;20384;-68
2021/01/18 05:03:23;;;;;;;;;;;;;;;;;;5066045;28;19925;-69
2021/01/18 05:05:49;;;;;;;;;;;;;;;;;;5057968;28;20432;-69
2021/01/18 05:08:16;;;;;;;;;;;;;;;;;;5053705;28;20372;-69
2021/01/18 05:10:42;;;;;;;;;;;;;;;;;;5050071;28;20003;-69
2021/01/18 05:13:09;;;;;;;;;;;;;;;;;;5047689;28;20027;-69
2021/01/18 05:15:35;;;;;;;;;;;;;;;;;;5045112;28;19943;-69
2021/01/18 05:18:01;;;;;;;;;;;;;;;;;;5053326;28;20011;-70
2021/01/18 05:20:28;;;;;;;;;;;;;;;;;;5053177;28;19925;-69
2021/01/18 05:22:55;;;;;;;;;;;;;;;;;;5046657;28;19929;-69
2021/01/18 05:25:22;;;;;;;;;;;;;;;;;;5051055;28;20325;-69
2021/01/18 05:27:48;;;;;;;;;;;;;;;;;;5048796;28;20278;-69
2021/01/18 05:30:14;;;;;;;;;;;;;;;;;;5048754;28;19929;-68
2021/01/18 05:32:41;;;;;;;;;;;;;;;;;;5050424;28;19978;-69
2021/01/18 05:35:09;;;;;;;;;;;;;;;;;;5043392;28;20007;-69
2021/01/18 05:37:35;;;;;;;;;;;;;;;;;;5053445;28;19924;-68
2021/01/18 05:40:02;;;;;;;;;;;;;;;;;;5054238;28;20421;-69
2021/01/18 05:42:28;;;;;;;;;;;;;;;;;;5047382;28;19964;-68
2021/01/18 05:44:54;;;;;;;;;;;;;;;;;;5053411;28;19929;-69
2021/01/18 05:47:21;;;;;;;;;;;;;;;;;;5050501;28;19943;-70
2021/01/18 05:49:47;;;;;;;;;;;;;;;;;;5047547;28;20011;-69
2021/01/18 05:52:14;;;;;;;;;;;;;;;;;;5057693;28;19943;-68
2021/01/18 05:54:40;;;;;;;;;;;;;;;;;;5048086;28;19925;-68
2021/01/18 05:57:07;;;;;;;;;;;;;;;;;;5052113;28;19925;-69
2021/01/18 05:59:33;;;;;;;;;;;;;;;;;;5053018;28;20311;-69
2021/01/18 06:02:00;;;;;;;;;;;;;;;;;;5045649;28;20074;-68
2021/01/18 06:04:26;;;;;;;;;;;;;;;;;;5050749;28;19939;-68
2021/01/18 06:06:53;;;;;;;;;;;;;;;;;;5052766;28;19936;-68
2021/01/18 06:09:19;;;;;;;;;;;;;;;;;;5053265;28;20328;-69
2021/01/18 06:11:46;;;;;;;;;;;;;;;;;;5051889;28;19925;-68
2021/01/18 06:14:12;;;;;;;;;;;;;;;;;;5051511;28;20016;-68
2021/01/18 06:16:38;;;;;;;;;;;;;;;;;;5042225;28;20360;-68
2021/01/18 06:19:05;;;;;;;;;;;;;;;;;;5050549;28;20019;-68
2021/01/18 06:21:32;;;;;;;;;;;;;;;;;;5058962;28;19925;-68
2021/01/18 06:23:58;;;;;;;;;;;;;;;;;;5052367;28;19924;-69
2021/01/18 06:26:24;;;;;;;;;;;;;;;;;;5047506;28;19929;-68
2021/01/18 06:28:51;;;;;;;;;;;;;;;;;;5045616;28;19925;-68
2021/01/18 06:31:17;;;;;;;;;;;;;;;;;;5050612;28;20044;-68
2021/01/18 06:33:44;;;;;;;;;;;;;;;;;;5045696;28;20307;-68
2021/01/18 06:36:10;;;;;;;;;;;;;;;;;;5048568;28;19979;-68
2021/01/18 06:38:37;;;;;;;;;;;;;;;;;;5052323;28;20015;-69
2021/01/18 06:41:03;;;;;;;;;;;;;;;;;;5052456;28;19924;-67
2021/01/18 06:43:30;;;;;;;;;;;;;;;;;;5060413;28;19925;-70
2021/01/18 06:45:56;;;;;;;;;;;;;;;;;;5057382;28;19925;-67
2021/01/18 06:48:22;;;;;;;;;;;;;;;;;;5048876;28;19925;-68
2021/01/18 06:50:49;;;;;;;;;;;;;;;;;;5055180;28;19929;-67
2021/01/18 06:53:16;;;;;;;;;;;;;;;;;;5053743;28;19925;-68
2021/01/18 06:55:43;;;;;;;;;;;;;;;;;;5045914;28;19925;-68
2021/01/18 06:58:09;;;;;;;;;;;;;;;;;;5050529;28;19925;-67
2021/01/18 07:00:36;;;;;;;;;;;;;;;;;;5048879;28;19974;-68
2021/01/18 07:03:02;;;;;;;;;;;;;;;;;;5047811;28;19925;-68
2021/01/18 07:05:29;;;;;;;;;;;;;;;;;;5047318;28;19932;-67
2021/01/18 07:07:55;;;;;;;;;;;;;;;;;;5059274;28;19942;-67
2021/01/18 07:10:22;;;;;;;;;;;;;;;;;;5052428;28;19943;-67
2021/01/18 07:12:48;;;;;;;;;;;;;;;;;;5042252;28;19978;-67
2021/01/18 07:15:15;;;;;;;;;;;;;;;;;;5051071;28;19962;-68
2021/01/18 07:17:41;;;;;;;;;;;;;;;;;;5048637;28;20052;-67
2021/01/18 07:20:07;;;;;;;;;;;;;;;;;;5050136;28;19924;-68
2021/01/18 07:22:34;;;;;;;;;;;;;;;;;;5054732;28;19936;-68
2021/01/18 07:25:03;;;;;;;;;;;;;;;;;;5061646;28;19925;-69
2021/01/18 07:27:29;;;;;;;;;;;;;;;;;;5054250;28;19932;-68
2021/01/18 07:29:55;;;;;;;;;;;;;;;;;;5052474;28;19925;-67
2021/01/18 07:32:22;;;;;;;;;;;;;;;;;;5049447;28;20021;-69
2021/01/18 07:34:48;;;;;;;;;;;;;;;;;;5051643;28;19924;-68
2021/01/18 07:37:15;;;;;;;;;;;;;;;;;;5049109;28;19929;-68
2021/01/18 07:39:41;;;;;;;;;;;;;;;;;;5051195;28;20019;-68
2021/01/18 07:42:08;;;;;;;;;;;;;;;;;;5060516;28;19958;-68
2021/01/18 07:44:35;;;;;;;;;;;;;;;;;;5046700;28;19929;-69
2021/01/18 07:47:02;;;;;;;;;;;;;;;;;;5045492;28;19946;-68
2021/01/18 07:49:28;;;;;;;;;;;;;;;;;;5041520;28;20373;-68
2021/01/18 07:51:55;;;;;;;;;;;;;;;;;;5043692;28;20015;-68
2021/01/18 07:54:21;;;;;;;;;;;;;;;;;;5037923;28;19943;-70
2021/01/18 07:56:47;;;;;;;;;;;;;;;;;;5044954;28;19940;-69
2021/01/18 07:59:14;;;;;;;;;;;;;;;;;;5045437;28;20491;-69
2021/01/18 08:01:40;;;;;;;;;;;;;;;;;;5045670;28;20341;-66
2021/01/18 08:04:07;;;;;;;;;;;;;;;;;;5039256;28;19931;-68
2021/01/18 08:06:33;;;;;;;;;;;;;;;;;;5055134;28;20273;-68
2021/01/18 08:09:00;;;;;;;;;;;;;;;;;;5053558;28;19960;-69
2021/01/18 08:11:26;;;;;;;;;;;;;;;;;;5052702;28;19925;-69
2021/01/18 08:13:53;;;;;;;;;;;;;;;;;;5049686;28;19938;-68
2021/01/18 08:16:20;;;;;;;;;;;;;;;;;;5049203;28;19928;-67
2021/01/18 08:18:46;;;;;;;;;;;;;;;;;;5050965;28;19966;-69
2021/01/18 08:21:13;;;;;;;;;;;;;;;;;;5054920;28;19939;-69
2021/01/18 08:23:39;;;;;;;;;;;;;;;;;;5046099;28;20395;-69
2021/01/18 08:26:06;;;;;;;;;;;;;;;;;;5061418;28;19932;-68
2021/01/18 08:28:33;;;;;;;;;;;;;;;;;;5055021;28;20372;-67
2021/01/18 08:30:59;;;;;;;;;;;;;;;;;;5052475;28;19925;-69
2021/01/18 08:33:26;;;;;;;;;;;;;;;;;;5047101;28;19925;-69
2021/01/18 08:35:54;;;;;;;;;;;;;;;;;;5068987;28;19938;-68
2021/01/18 08:38:21;;;;;;;;;;;;;;;;;;5058001;28;20039;-68
2021/01/18 08:40:48;;;;;;;;;;;;;;;;;;5048403;28;20015;-69
2021/01/18 08:43:15;;;;;;;;;;;;;;;;;;5053314;28;20548;-68
2021/01/18 08:45:41;;;;;;;;;;;;;;;;;;5043761;28;19948;-69
2021/01/18 08:48:08;;;;;;;;;;;;;;;;;;5049747;28;20377;-67
2021/01/18 08:50:34;;;;;;;;;;;;;;;;;;5049736;28;20020;-67
2021/01/18 08:53:01;;;;;;;;;;;;;;;;;;5047706;28;19925;-67
2021/01/18 08:55:27;;;;;;;;;;;;;;;;;;5043005;28;19925;-68
2021/01/18 08:57:54;;;;;;;;;;;;;;;;;;5053491;28;19950;-67
2021/01/18 09:00:20;;;;;;;;;;;;;;;;;;5054266;28;19925;-67
2021/01/18 09:02:46;;;;;;;;;;;;;;;;;;5052479;28;19932;-69
2021/01/18 09:05:13;;;;;;;;;;;;;;;;;;5035688;28;19928;-67
2021/01/18 09:07:39;;;;;;;;;;;;;;;;;;5053800;28;19924;-66
2021/01/18 09:10:06;;;;;;;;;;;;;;;;;;5053189;28;19924;-66
2021/01/18 09:12:32;;;;;;;;;;;;;;;;;;5039819;28;19925;-68
2021/01/18 09:14:59;;;;;;;;;;;;;;;;;;5036238;28;20358;-68
2021/01/18 09:17:25;;;;;;;;;;;;;;;;;;5051783;28;19974;-68
2021/01/18 09:19:52;;;;;;;;;;;;;;;;;;5045021;28;20265;-66
2021/01/18 09:22:18;;;;;;;;;;;;;;;;;;5059551;28;20024;-67
2021/01/18 09:24:44;;;;;;;;;;;;;;;;;;5057984;28;19924;-66
2021/01/18 09:27:11;;;;;;;;;;;;;;;;;;5055764;28;19924;-67
2021/01/18 09:29:37;;;;;;;;;;;;;;;;;;5053107;28;19948;-67
2021/01/18 09:32:04;;;;;;;;;;;;;;;;;;5051988;28;20077;-67
2021/01/18 09:34:30;;;;;;;;;;;;;;;;;;5054973;28;19932;-67
2021/01/18 09:36:57;;;;;;;;;;;;;;;;;;5048026;28;20331;-66
2021/01/18 09:39:23;;;;;;;;;;;;;;;;;;5051831;28;20434;-67
2021/01/18 09:41:50;;;;;;;;;;;;;;;;;;5045194;28;20303;-68
2021/01/18 09:44:16;;;;;;;;;;;;;;;;;;5048695;28;19940;-68
2021/01/18 09:46:43;;;;;;;;;;;;;;;;;;5044284;28;19928;-67
2021/01/18 09:49:09;;;;;;;;;;;;;;;;;;5057458;28;20075;-67
2021/01/18 09:51:35;;;;;;;;;;;;;;;;;;5051755;28;19925;-66
2021/01/18 09:54:02;;;;;;;;;;;;;;;;;;5036039;28;20414;-67
2021/01/18 09:56:28;;;;;;;;;;;;;;;;;;5040621;28;20430;-67
2021/01/18 09:58:55;;;;;;;;;;;;;;;;;;5056758;28;20027;-66
2021/01/18 10:01:21;;;;;;;;;;;;;;;;;;5051029;28;19924;-66
2021/01/18 10:03:48;;;;;;;;;;;;;;;;;;5046920;28;19928;-67
2021/01/18 10:06:14;;;;;;;;;;;;;;;;;;5042549;28;20300;-67
2021/01/18 10:08:41;;;;;;;;;;;;;;;;;;5058184;28;20007;-66
2021/01/18 10:11:07;;;;;;;;;;;;;;;;;;5049753;28;19960;-69
2021/01/18 10:13:34;;;;;;;;;;;;;;;;;;5049166;28;19933;-69
2021/01/18 10:16:00;;;;;;;;;;;;;;;;;;5045506;28;19925;-68
2021/01/18 10:18:26;;;;;;;;;;;;;;;;;;5050371;28;19943;-68
2021/01/18 10:20:54;;;;;;;;;;;;;;;;;;5037027;28;19925;-68
2021/01/18 10:23:20;;;;;;;;;;;;;;;;;;5049262;28;19925;-69
2021/01/18 10:25:47;;;;;;;;;;;;;;;;;;5056202;28;20433;-68
2021/01/18 10:28:13;;;;;;;;;;;;;;;;;;5053391;28;19925;-69
2021/01/18 10:30:39;;;;;;;;;;;;;;;;;;5042837;28;19931;-68
2021/01/18 10:33:06;;;;;;;;;;;;;;;;;;5049292;28;19970;-68
2021/01/18 10:35:32;;;;;;;;;;;;;;;;;;5039877;28;19932;-68
2021/01/18 10:37:59;;;;;;;;;;;;;;;;;;5045840;28;19935;-68
2021/01/18 10:40:25;;;;;;;;;;;;;;;;;;5041151;28;20009;-70
2021/01/18 10:42:52;;;;;;;;;;;;;;;;;;5036375;28;20282;-67
2021/01/18 10:45:18;;;;;;;;;;;;;;;;;;5038955;28;19937;-68
2021/01/18 10:47:45;;;;;;;;;;;;;;;;;;5044531;28;20023;-69
2021/01/18 10:50:12;;;;;;;;;;;;;;;;;;5048399;28;20521;-68
2021/01/18 10:52:41;;;;;;;;;;;;;;;;;;5045622;28;19931;-67
2021/01/18 10:55:07;;;;;;;;;;;;;;;;;;5040589;28;20380;-68
2021/01/18 10:57:34;;;;;;;;;;;;;;;;;;5046250;28;20281;-68
2021/01/18 11:00:00;;;;;;;;;;;;;;;;;;5045906;28;20011;-68
2021/01/18 11:02:27;;;;;;;;;;;;;;;;;;5045791;28;19925;-68
2021/01/18 11:04:53;;;;;;;;;;;;;;;;;;5046643;28;19929;-68
2021/01/18 11:07:19;;;;;;;;;;;;;;;;;;5046916;28;20291;-68
2021/01/18 11:09:46;;;;;;;;;;;;;;;;;;5046940;28;20300;-68
2021/01/18 11:12:12;;;;;;;;;;;;;;;;;;5047865;28;20307;-67
2021/01/18 11:14:39;;;;;;;;;;;;;;;;;;5039137;28;20023;-70
2021/01/18 11:17:06;;;;;;;;;;;;;;;;;;5042144;28;19952;-69
2021/01/18 11:19:33;;;;;;;;;;;;;;;;;;5044791;28;19976;-68
2021/01/18 11:21:59;;;;;;;;;;;;;;;;;;5048689;28;19925;-68
2021/01/18 11:24:26;;;;;;;;;;;;;;;;;;5049001;28;20343;-69
2021/01/18 11:26:52;;;;;;;;;;;;;;;;;;5046029;28;19932;-67
2021/01/18 11:29:18;;;;;;;;;;;;;;;;;;5050704;28;19925;-67
2021/01/18 11:31:45;;;;;;;;;;;;;;;;;;5044074;28;19925;-67
2021/01/18 11:34:11;;;;;;;;;;;;;;;;;;5044256;28;20488;-68
2021/01/18 11:36:38;;;;;;;;;;;;;;;;;;5059925;28;19924;-66
2021/01/18 11:39:05;;;;;;;;;;;;;;;;;;5051751;28;19929;-68
2021/01/18 11:41:31;;;;;;;;;;;;;;;;;;5051706;28;19925;-67
2021/01/18 11:43:58;;;;;;;;;;;;;;;;;;5051265;28;19925;-67
2021/01/18 11:46:24;;;;;;;;;;;;;;;;;;5050394;28;19925;-67
2021/01/18 11:48:51;;;;;;;;;;;;;;;;;;5053472;28;19932;-66
2021/01/18 11:51:17;;;;;;;;;;;;;;;;;;5048177;28;19933;-66
2021/01/18 11:53:44;;;;;;;;;;;;;;;;;;5051235;28;19939;-66
2021/01/18 11:56:10;;;;;;;;;;;;;;;;;;5049457;28;20024;-67
2021/01/18 11:58:36;;;;;;;;;;;;;;;;;;5051383;28;19931;-67
2021/01/18 12:01:03;;;;;;;;;;;;;;;;;;5047236;28;19931;-66
2021/01/18 12:03:29;;;;;;;;;;;;;;;;;;5057431;28;20451;-66
2021/01/18 12:05:56;;;;;;;;;;;;;;;;;;5044251;28;20004;-68
2021/01/18 12:08:22;;;;;;;;;;;;;;;;;;5048054;28;20350;-67
2021/01/18 12:10:49;;;;;;;;;;;;;;;;;;5044205;28;20015;-67
2021/01/18 12:13:15;;;;;;;;;;;;;;;;;;5067421;28;20050;-67
2021/01/18 12:15:41;;;;;;;;;;;;;;;;;;5041656;28;20024;-67
2021/01/18 12:18:08;;;;;;;;;;;;;;;;;;5049369;28;19972;-66
2021/01/18 12:20:34;;;;;;;;;;;;;;;;;;5052887;28;19925;-66
2021/01/18 12:23:01;;;;;;;;;;;;;;;;;;5052519;28;19931;-66
2021/01/18 12:25:28;;;;;;;;;;;;;;;;;;5046359;28;20191;-68
2021/01/18 12:27:54;;;;;;;;;;;;;;;;;;5051291;28;20011;-66
2021/01/18 12:30:21;;;;;;;;;;;;;;;;;;5045322;28;19976;-69
2021/01/18 12:32:47;;;;;;;;;;;;;;;;;;5076394;22;20403;-68
2021/01/18 12:35:14;;;;;;;;;;;;;;;;;;5083717;28;20014;-67
2021/01/18 12:37:40;;;;;;;;;;;;;;;;;;5086634;28;19925;-67
2021/01/18 12:40:06;;;;;;;;;;;;;;;;;;5089454;28;19924;-69
2021/01/18 12:42:34;;;;;;;;;;;;;;;;;;5083213;28;19946;-68
2021/01/18 12:45:00;;;;;;;;;;;;;;;;;;5086640;28;19924;-67
2021/01/18 12:47:27;;;;;;;;;;;;;;;;;;5083999;28;19988;-67
2021/01/18 12:49:53;;;;;;;;;;;;;;;;;;5081861;28;19925;-66
2021/01/18 12:52:20;;;;;;;;;;;;;;;;;;5085758;28;19986;-68
2021/01/18 12:54:46;;;;;;;;;;;;;;;;;;5078139;28;20392;-68
2021/01/18 12:57:13;;;;;;;;;;;;;;;;;;5085791;28;19938;-68
2021/01/18 12:59:39;;;;;;;;;;;;;;;;;;5093080;28;19987;-68
2021/01/18 13:02:06;;;;;;;;;;;;;;;;;;5091066;28;20019;-68
2021/01/18 13:04:33;;;;;;;;;;;;;;;;;;5085296;28;20303;-68
2021/01/18 13:06:59;;;;;;;;;;;;;;;;;;5090681;28;20288;-69
2021/01/18 13:09:26;;;;;;;;;;;;;;;;;;5086647;28;20075;-66
2021/01/18 13:11:53;;;;;;;;;;;;;;;;;;5092237;28;19971;-67
2021/01/18 13:14:19;;;;;;;;;;;;;;;;;;5088684;28;20105;-69
2021/01/18 13:16:46;;;;;;;;;;;;;;;;;;5086356;28;20064;-66
2021/01/18 13:19:12;;;;;;;;;;;;;;;;;;5089916;28;20027;-69
2021/01/18 13:21:39;;;;;;;;;;;;;;;;;;5088249;28;20064;-66
2021/01/18 13:24:05;;;;;;;;;;;;;;;;;;5085230;28;19931;-68
2021/01/18 13:26:32;;;;;;;;;;;;;;;;;;5088853;28;19936;-69
2021/01/18 13:28:58;;;;;;;;;;;;;;;;;;5089059;28;19973;-67
2021/01/18 13:31:25;;;;;;;;;;;;;;;;;;5086266;28;19975;-68
2021/01/18 13:33:51;;;;;;;;;;;;;;;;;;5086809;28;20027;-70
2021/01/18 13:36:18;;;;;;;;;;;;;;;;;;5092013;28;19924;-68
2021/01/18 13:38:44;;;;;;;;;;;;;;;;;;5091104;28;19976;-67
2021/01/18 13:41:11;;;;;;;;;;;;;;;;;;5090561;28;20010;-68
2021/01/18 13:43:37;;;;;;;;;;;;;;;;;;5086665;28;20388;-68
2021/01/18 13:46:07;;;;;;;;;;;;;;;;;;5089740;28;20260;-67
2021/01/18 13:48:33;;;;;;;;;;;;;;;;;;5090264;28;19951;-67
2021/01/18 13:51:00;;;;;;;;;;;;;;;;;;5089257;28;20009;-67
2021/01/18 13:53:26;;;;;;;;;;;;;;;;;;5088179;28;19924;-66
2021/01/18 13:55:53;;;;;;;;;;;;;;;;;;5087181;28;19924;-69
2021/01/18 13:58:19;;;;;;;;;;;;;;;;;;5087750;28;20023;-67
2021/01/18 14:00:46;;;;;;;;;;;;;;;;;;5084288;28;19928;-67
2021/01/18 14:03:12;;;;;;;;;;;;;;;;;;5088542;28;20403;-67
2021/01/18 14:05:38;;;;;;;;;;;;;;;;;;5088803;28;19984;-68
2021/01/18 14:08:05;;;;;;;;;;;;;;;;;;5088175;28;20016;-68
2021/01/18 14:10:31;;;;;;;;;;;;;;;;;;5087261;28;19928;-68
2021/01/18 14:12:58;;;;;;;;;;;;;;;;;;5089818;28;19939;-68
2021/01/18 14:15:24;;;;;;;;;;;;;;;;;;5085284;28;20348;-68
2021/01/18 14:17:51;;;;;;;;;;;;;;;;;;5091784;28;19932;-69
2021/01/18 14:20:17;;;;;;;;;;;;;;;;;;5093035;28;20359;-69
2021/01/18 14:22:44;;;;;;;;;;;;;;;;;;5095365;28;19924;-68
2021/01/18 14:25:11;;;;;;;;;;;;;;;;;;5094696;28;20461;-68
2021/01/18 14:27:37;;;;;;;;;;;;;;;;;;5099522;28;19924;-69
2021/01/18 14:30:04;;;;;;;;;;;;;;;;;;5088980;28;19928;-70
2021/01/18 14:32:30;;;;;;;;;;;;;;;;;;5094796;28;19977;-68
2021/01/18 14:34:57;;;;;;;;;;;;;;;;;;5092066;28;19970;-68
2021/01/18 14:37:23;;;;;;;;;;;;;;;;;;5093388;28;19932;-68
2021/01/18 14:39:50;;;;;;;;;;;;;;;;;;5095901;28;19930;-68
2021/01/18 14:42:16;;;;;;;;;;;;;;;;;;5086520;28;20392;-69
2021/01/18 14:44:43;;;;;;;;;;;;;;;;;;5082140;28;19982;-68
2021/01/18 14:47:09;;;;;;;;;;;;;;;;;;5087121;28;19924;-70
2021/01/18 14:49:36;;;;;;;;;;;;;;;;;;5083501;28;20379;-68
2021/01/18 14:52:02;;;;;;;;;;;;;;;;;;5088494;28;20023;-69
2021/01/18 14:54:29;;;;;;;;;;;;;;;;;;5087862;28;20031;-69
2021/01/18 14:56:55;;;;;;;;;;;;;;;;;;5088944;28;20007;-67
2021/01/18 14:59:22;;;;;;;;;;;;;;;;;;5088327;28;20002;-70
2021/01/18 15:01:49;;;;;;;;;;;;;;;;;;5090486;28;19924;-70
2021/01/18 15:04:15;;;;;;;;;;;;;;;;;;5082215;28;19934;-70
2021/01/18 15:06:42;;;;;;;;;;;;;;;;;;5087894;28;20022;-70
2021/01/18 15:09:09;;;;;;;;;;;;;;;;;;5088671;28;19924;-68
2021/01/18 15:11:35;;;;;;;;;;;;;;;;;;5088279;28;19924;-69
2021/01/18 15:14:02;;;;;;;;;;;;;;;;;;5084492;28;20291;-69
2021/01/18 15:16:29;;;;;;;;;;;;;;;;;;5091960;28;19932;-69
2021/01/18 15:18:55;;;;;;;;;;;;;;;;;;5092242;28;19978;-69
2021/01/18 15:21:22;;;;;;;;;;;;;;;;;;5093667;28;20296;-68
2021/01/18 15:23:48;;;;;;;;;;;;;;;;;;5089409;28;19952;-68
2021/01/18 15:26:15;;;;;;;;;;;;;;;;;;5092444;28;19957;-68
2021/01/18 15:28:41;;;;;;;;;;;;;;;;;;5085057;28;19928;-69
2021/01/18 15:31:08;;;;;;;;;;;;;;;;;;5094028;28;20299;-68
2021/01/18 15:33:35;;;;;;;;;;;;;;;;;;5091255;28;20191;-68
2021/01/18 15:36:09;;;;;;;;;;;;;;;;;;5089491;28;21487;-71
2021/01/18 15:38:36;;;;;;;;;;;;;;;;;;5091405;28;19931;-69
2021/01/18 15:41:02;;;;;;;;;;;;;;;;;;5092927;28;19928;-71
2021/01/18 15:43:29;;;;;;;;;;;;;;;;;;5087450;28;19926;-69
2021/01/18 15:45:55;;;;;;;;;;;;;;;;;;5094134;28;19928;-69
2021/01/18 15:48:22;;;;;;;;;;;;;;;;;;5092315;28;20381;-69
2021/01/18 15:50:48;;;;;;;;;;;;;;;;;;5092888;28;20346;-69
2021/01/18 15:53:15;;;;;;;;;;;;;;;;;;5090572;28;20019;-69
2021/01/18 15:55:41;;;;;;;;;;;;;;;;;;5085382;28;19935;-69
2021/01/18 15:58:08;;;;;;;;;;;;;;;;;;5089655;28;20356;-69
2021/01/18 16:00:34;;;;;;;;;;;;;;;;;;5089174;28;19931;-69
2021/01/18 16:03:01;;;;;;;;;;;;;;;;;;5090798;28;19985;-69
2021/01/18 16:05:27;;;;;;;;;;;;;;;;;;5088091;28;20026;-69
2021/01/18 16:07:54;;;;;;;;;;;;;;;;;;5091556;28;20066;-69
2021/01/18 16:10:20;;;;;;;;;;;;;;;;;;5091051;28;19932;-69
2021/01/18 16:12:47;;;;;;;;;;;;;;;;;;5085459;28;20332;-68
2021/01/18 16:15:13;;;;;;;;;;;;;;;;;;5087294;28;19924;-68
2021/01/18 16:17:40;;;;;;;;;;;;;;;;;;5089326;28;19924;-71
2021/01/18 16:20:06;;;;;;;;;;;;;;;;;;5088733;28;19928;-69
2021/01/18 16:22:32;;;;;;;;;;;;;;;;;;5087738;28;19931;-68
2021/01/18 16:24:59;;;;;;;;;;;;;;;;;;5089459;28;20431;-70
2021/01/18 16:27:25;;;;;;;;;;;;;;;;;;5091274;28;20007;-68
2021/01/18 16:29:52;;;;;;;;;;;;;;;;;;5090947;28;20019;-69
2021/01/18 16:32:21;;;;;;;;;;;;;;;;;;5091569;28;19928;-69
2021/01/18 16:34:47;;;;;;;;;;;;;;;;;;5093484;28;20427;-69
2021/01/18 16:37:15;;;;;;;;;;;;;;;;;;5086445;28;19931;-69
2021/01/18 16:39:41;;;;;;;;;;;;;;;;;;5091248;28;19928;-69